KBPI/BPI METAR and TAF weather

Enter ICAO airport designator
Station Type Date Time Source
KBPI METAR 2019/04/18 19:53 UTC NOAA

KBPI 181953Z AUTO 34019KT 10SM CLR 14/M04 A3032 RMK AO2 SLP221 T01441044


Station Type Date Time Source
KBPI Decoded METAR 2019/04/18 19:53 UTC NOAA

BIG PINEY-MARBLETON AIRPORT, WY, United States (KBPI) 42-35N 110-06W 2117M
Apr 18, 2019 - 03:53 PM EDT / 2019.04.18 1953 UTC
Wind: from the NNW (340 degrees) at 22 MPH (19 KT):0
Visibility: 10 mile(s):0
Sky conditions: clear
Temperature: 57.9 F (14.4 C)
Dew Point: 24.1 F (-4.4 C)
Relative Humidity: 26%
Pressure (altimeter): 30.32 in. Hg (1026 hPa)
ob: KBPI 181953Z AUTO 34019KT 10SM CLR 14/M04 A3032 RMK AO2 SLP221 T01441044
cycle: 20

Station Type Date Time Source
KBPI TAF 2019/04/18 18:22 UTC NOAA

TAF KBPI 181720Z 1818/1918 35010KT P6SM SKC
FM181900 33012G22KT P6SM SKC
FM190200 34008KT P6SM SKC
FM191100 VRB05KT P6SM SKC

Example: see airport list